createdAt,value
2023-03-22T00:03:00.744Z,100377.66
2023-03-22T00:06:03.670Z,100387.13
2023-03-22T00:09:06.054Z,100374.25
2023-03-22T00:12:08.296Z,100376.56
2023-03-22T00:15:11.376Z,100369.22
2023-03-22T00:18:14.605Z,100375.25
2023-03-22T00:21:17.585Z,100380.22
2023-03-22T00:24:21.278Z,100375.78
2023-03-22T00:27:23.566Z,100366.59
2023-03-22T00:30:25.953Z,100378.41
2023-03-22T00:33:32.260Z,100387.03
2023-03-22T00:36:34.580Z,100381.47
2023-03-22T00:39:36.838Z,100376.00
2023-03-22T00:42:41.213Z,100378.56
2023-03-22T00:45:43.778Z,100374.34
2023-03-22T00:48:46.721Z,100379.03
2023-03-22T00:51:49.282Z,100374.78
2023-03-22T00:54:51.932Z,100378.44
2023-03-22T00:57:54.953Z,100369.72
2023-03-22T01:00:57.282Z,100374.19
2023-03-22T01:03:59.894Z,100368.69
2023-03-22T01:07:03.842Z,100378.63
2023-03-22T01:10:06.876Z,100364.66
2023-03-22T01:13:11.418Z,100361.88
2023-03-22T01:16:13.810Z,100356.50
2023-03-22T01:19:16.210Z,100359.00
2023-03-22T01:22:18.629Z,100358.63
2023-03-22T01:25:21.100Z,100351.63
2023-03-22T01:28:25.249Z,100346.91
2023-03-22T01:31:29.169Z,100338.66
2023-03-22T01:34:31.932Z,100342.00
2023-03-22T01:37:34.666Z,100346.78
2023-03-22T01:40:38.610Z,100354.00
2023-03-22T01:43:43.104Z,100347.13
2023-03-22T01:46:47.962Z,100348.59
2023-03-22T01:49:50.340Z,100342.19
2023-03-22T01:52:54.699Z,100342.63
2023-03-22T01:56:01.920Z,100345.75
2023-03-22T01:59:11.140Z,100342.25
2023-03-22T02:02:33.897Z,100349.13
2023-03-22T02:05:48.032Z,100354.94
2023-03-22T02:08:53.066Z,100354.84
2023-03-22T02:12:24.477Z,100357.84
2023-03-22T02:15:38.615Z,100360.09
2023-03-22T02:19:30.726Z,100368.66
2023-03-22T02:22:39.666Z,100357.25
2023-03-22T02:25:57.222Z,100358.97
2023-03-22T02:29:23.030Z,100356.81
2023-03-22T02:32:51.177Z,100370.50
2023-03-22T02:36:32.633Z,100369.22
2023-03-22T02:40:02.789Z,100370.47
2023-03-22T02:43:56.524Z,100367.75
2023-03-22T02:47:14.287Z,100366.91
2023-03-22T02:50:31.910Z,100370.97
2023-03-22T02:53:47.914Z,100378.91
2023-03-22T02:57:00.433Z,100378.28
2023-03-22T03:00:16.209Z,100374.41
2023-03-22T03:03:20.995Z,100361.84
2023-03-22T03:06:28.978Z,100371.00
2023-03-22T03:09:33.232Z,100379.13
2023-03-22T03:12:35.973Z,100373.00
2023-03-22T03:15:42.618Z,100374.06
2023-03-22T03:19:00.679Z,100366.22
2023-03-22T03:22:13.939Z,100377.97
2023-03-22T03:25:43.556Z,100380.88
2023-03-22T03:28:53.162Z,100362.16
2023-03-22T03:32:10.514Z,100372.56
2023-03-22T03:35:25.567Z,100379.53
2023-03-22T03:38:31.505Z,100369.00
2023-03-22T03:41:35.099Z,100374.56
2023-03-22T03:44:38.986Z,100384.00
2023-03-22T03:47:44.644Z,100377.91
2023-03-22T03:50:50.983Z,100381.13
2023-03-22T03:53:53.705Z,100367.59
2023-03-22T03:56:57.697Z,100372.97
2023-03-22T04:00:00.226Z,100374.03
2023-03-22T04:03:21.498Z,100371.38
2023-03-22T04:06:46.460Z,100369.78
2023-03-22T04:09:53.142Z,100368.13
2023-03-22T04:13:00.433Z,100362.56
2023-03-22T04:16:03.072Z,100361.50
2023-03-22T04:19:09.536Z,100373.75
2023-03-22T04:22:18.647Z,100377.94
2023-03-22T04:25:22.997Z,100388.84
2023-03-22T04:28:37.143Z,100390.56
2023-03-22T04:31:39.552Z,100383.13
2023-03-22T04:34:56.360Z,100390.41
2023-03-22T04:38:00.896Z,100384.19
2023-03-22T04:41:05.579Z,100396.72
2023-03-22T04:44:15.982Z,100389.25
2023-03-22T04:47:24.246Z,100383.47
2023-03-22T04:50:28.230Z,100387.88
2023-03-22T04:53:38.744Z,100388.88
2023-03-22T04:56:42.064Z,100390.56
2023-03-22T04:59:44.623Z,100402.84
2023-03-22T05:02:47.043Z,100402.00
2023-03-22T05:05:59.400Z,100402.78
2023-03-22T05:09:11.020Z,100410.97
2023-03-22T05:12:13.727Z,100414.03
2023-03-22T05:15:28.846Z,100408.34
2023-03-22T05:18:32.866Z,100410.38
2023-03-22T05:21:37.076Z,100413.09
2023-03-22T05:24:40.849Z,100417.34
2023-03-22T05:27:50.365Z,100418.25
2023-03-22T05:31:28.656Z,100429.59
2023-03-22T05:34:37.131Z,100434.13
2023-03-22T05:37:53.336Z,100432.88
2023-03-22T05:40:56.993Z,100432.34
2023-03-22T05:44:00.452Z,100432.25
2023-03-22T05:47:04.941Z,100435.81
2023-03-22T05:50:27.693Z,100436.94
2023-03-22T05:53:31.903Z,100435.94
2023-03-22T05:56:44.326Z,100436.19
2023-03-22T05:59:46.728Z,100442.88
2023-03-22T06:02:56.803Z,100440.00
2023-03-22T06:05:59.937Z,100451.78
2023-03-22T06:09:18.201Z,100451.00
2023-03-22T06:12:27.202Z,100447.94
2023-03-22T06:15:50.067Z,100448.44
2023-03-22T06:18:56.059Z,100453.59
2023-03-22T06:21:58.396Z,100464.44
2023-03-22T06:25:02.339Z,100463.22
2023-03-22T06:28:12.423Z,100464.81
2023-03-22T06:31:21.941Z,100476.69
2023-03-22T06:34:29.125Z,100469.59
2023-03-22T06:37:31.553Z,100471.09
2023-03-22T06:40:35.846Z,100466.78
2023-03-22T06:43:38.242Z,100481.44
2023-03-22T06:46:57.268Z,100474.34
2023-03-22T06:50:34.194Z,100474.44
2023-03-22T06:53:41.282Z,100481.31
2023-03-22T06:56:43.647Z,100478.28
2023-03-22T06:59:46.477Z,100468.66
2023-03-22T07:02:50.863Z,100473.69
2023-03-22T07:06:10.627Z,100491.25
2023-03-22T07:09:18.304Z,100485.09
2023-03-22T07:12:23.330Z,100481.97
2023-03-22T07:15:27.398Z,100485.78
2023-03-22T07:18:37.817Z,100498.31
2023-03-22T07:21:40.457Z,100504.81
2023-03-22T07:24:56.180Z,100498.47
2023-03-22T07:28:01.145Z,100496.94
2023-03-22T07:31:07.776Z,100488.75
2023-03-22T07:34:20.792Z,100494.22
2023-03-22T07:37:37.165Z,100487.66
2023-03-22T07:40:44.864Z,100481.25
2023-03-22T07:43:56.666Z,100486.81
2023-03-22T07:47:04.713Z,100486.19
2023-03-22T07:50:21.696Z,100494.00
2023-03-22T07:53:29.226Z,100489.06
2023-03-22T07:56:32.761Z,100478.09
2023-03-22T07:59:35.547Z,100470.63
2023-03-22T08:02:39.018Z,100475.75
2023-03-22T08:05:42.927Z,100480.88
2023-03-22T08:08:48.553Z,100471.03
2023-03-22T08:11:51.029Z,100475.00
2023-03-22T08:14:53.443Z,100473.25
2023-03-22T08:18:01.065Z,100487.50
2023-03-22T08:21:08.820Z,100481.41
2023-03-22T08:24:14.317Z,100480.94
2023-03-22T08:27:27.534Z,100475.47
2023-03-22T08:30:37.449Z,100475.38
2023-03-22T08:33:40.058Z,100483.09
2023-03-22T08:36:42.364Z,100480.44
2023-03-22T08:39:45.393Z,100485.59
2023-03-22T08:42:57.523Z,100479.41
2023-03-22T08:46:00.497Z,100488.34
2023-03-22T08:49:03.653Z,100482.06
2023-03-22T08:52:13.748Z,100478.50
2023-03-22T08:55:36.252Z,100473.72
2023-03-22T08:58:46.846Z,100481.06
2023-03-22T09:02:09.475Z,100487.56
2023-03-22T09:05:13.709Z,100488.06
2023-03-22T09:08:19.461Z,100487.03
2023-03-22T09:11:24.497Z,100492.19
2023-03-22T09:14:26.836Z,100482.78
2023-03-22T09:17:31.150Z,100482.78
2023-03-22T09:20:35.193Z,100483.09
2023-03-22T09:23:48.115Z,100486.13
2023-03-22T09:27:03.273Z,100487.22
2023-03-22T09:30:12.342Z,100476.56
2023-03-22T09:33:16.053Z,100468.09
2023-03-22T09:36:29.521Z,100475.00
2023-03-22T09:39:32.290Z,100469.50
2023-03-22T09:42:44.210Z,100464.59
2023-03-22T09:45:51.406Z,100461.03
2023-03-22T09:48:53.994Z,100458.84
2023-03-22T09:51:56.804Z,100454.31
2023-03-22T09:54:59.615Z,100455.44
2023-03-22T09:58:24.201Z,100464.22
2023-03-22T10:01:57.523Z,100459.50
2023-03-22T10:05:05.928Z,100464.03
2023-03-22T10:08:36.821Z,100463.09
2023-03-22T10:11:46.379Z,100462.22
2023-03-22T10:14:57.687Z,100460.66
2023-03-22T10:18:03.707Z,100461.91
2023-03-22T10:21:12.368Z,100457.06
2023-03-22T10:24:27.966Z,100460.78
2023-03-22T10:27:33.170Z,100465.97
2023-03-22T10:30:40.747Z,100449.50
2023-03-22T10:33:56.251Z,100464.88
2023-03-22T10:37:04.059Z,100460.69
2023-03-22T10:40:07.895Z,100458.19
2023-03-22T10:43:38.049Z,100452.88
2023-03-22T10:46:44.959Z,100452.16
2023-03-22T10:49:55.193Z,100448.47
2023-03-22T10:53:28.545Z,100451.41
2023-03-22T10:56:31.067Z,100452.03
2023-03-22T10:59:47.651Z,100449.22
2023-03-22T11:02:58.602Z,100448.56
2023-03-22T11:06:13.575Z,100438.13
2023-03-22T11:09:18.664Z,100440.97
2023-03-22T11:12:21.028Z,100427.88
2023-03-22T11:15:27.993Z,100424.16
2023-03-22T11:18:32.551Z,100425.84
2023-03-22T11:21:35.140Z,100417.28
2023-03-22T11:24:37.477Z,100412.81
2023-03-22T11:27:51.001Z,100417.56
2023-03-22T11:30:58.965Z,100414.97
2023-03-22T11:34:02.306Z,100412.34
2023-03-22T11:37:08.218Z,100405.94
2023-03-22T11:40:17.946Z,100407.97
2023-03-22T11:43:26.877Z,100398.72
2023-03-22T11:46:31.072Z,100399.19
2023-03-22T11:49:48.764Z,100393.50
2023-03-22T11:52:51.221Z,100382.03
2023-03-22T11:55:57.729Z,100389.34
2023-03-22T11:59:15.443Z,100388.50
2023-03-22T12:02:30.260Z,100390.44
2023-03-22T12:05:37.660Z,100393.59
2023-03-22T12:08:45.078Z,100397.47
2023-03-22T12:11:51.257Z,100393.97
2023-03-22T12:15:19.463Z,100389.00
2023-03-22T12:18:45.929Z,100387.97
2023-03-22T12:21:50.094Z,100387.25
2023-03-22T12:24:52.597Z,100381.22
2023-03-22T12:27:59.393Z,100381.19
2023-03-22T12:31:03.790Z,100380.22
2023-03-22T12:34:10.449Z,100380.53
2023-03-22T12:37:20.896Z,100377.72
2023-03-22T12:40:28.423Z,100373.16
2023-03-22T12:43:48.700Z,100376.66
2023-03-22T12:47:12.486Z,100373.22
2023-03-22T12:50:20.038Z,100376.09
2023-03-22T12:53:26.958Z,100366.66
2023-03-22T12:56:38.838Z,100373.13
2023-03-22T12:59:45.354Z,100363.00
2023-03-22T13:03:02.255Z,100356.88
2023-03-22T13:06:26.932Z,100350.88
2023-03-22T13:09:47.694Z,100340.31
2023-03-22T13:13:08.751Z,100347.19
2023-03-22T13:16:11.165Z,100339.59
2023-03-22T13:19:29.959Z,100334.56
2023-03-22T13:22:38.297Z,100336.06
2023-03-22T13:26:01.754Z,100335.63
2023-03-22T13:29:15.607Z,100332.91
2023-03-22T13:32:33.542Z,100313.75
2023-03-22T13:35:44.353Z,100322.31
2023-03-22T13:38:54.860Z,100320.53
2023-03-22T13:42:20.853Z,100328.97
2023-03-22T13:45:33.447Z,100324.22
2023-03-22T13:48:50.336Z,100318.34
2023-03-22T13:51:53.153Z,100315.91
2023-03-22T13:54:57.665Z,100310.50
2023-03-22T13:58:01.824Z,100304.09
2023-03-22T14:01:12.687Z,100302.84
2023-03-22T14:04:22.823Z,100293.50
2023-03-22T14:07:41.768Z,100308.16
2023-03-22T14:10:49.756Z,100299.34
2023-03-22T14:14:07.881Z,100297.47
2023-03-22T14:17:20.617Z,100294.00
2023-03-22T14:20:27.184Z,100290.63
